sensor_id;sensor_type;location;lat;lon;timestamp;P1;durP1;ratioP1;P2;durP2;ratioP2
19167;SDS011;9716;53.114;18.040;2023-06-04T00:01:12;2.60;;;1.55;;
19167;SDS011;9716;53.114;18.040;2023-06-04T00:03:58;4.53;;;2.30;;
19167;SDS011;9716;53.114;18.040;2023-06-04T00:06:27;2.92;;;1.55;;
19167;SDS011;9716;53.114;18.040;2023-06-04T00:08:55;2.33;;;1.60;;
19167;SDS011;9716;53.114;18.040;2023-06-04T00:11:24;4.72;;;1.40;;
19167;SDS011;9716;53.114;18.040;2023-06-04T00:13:53;3.10;;;1.63;;
19167;SDS011;9716;53.114;18.040;2023-06-04T00:16:21;3.25;;;1.60;;
19167;SDS011;9716;53.114;18.040;2023-06-04T00:18:50;2.53;;;1.55;;
19167;SDS011;9716;53.114;18.040;2023-06-04T00:21:20;3.08;;;1.80;;
19167;SDS011;9716;53.114;18.040;2023-06-04T00:23:49;3.72;;;1.58;;
19167;SDS011;9716;53.114;18.040;2023-06-04T00:26:17;3.53;;;1.77;;
19167;SDS011;9716;53.114;18.040;2023-06-04T00:28:46;7.07;;;1.50;;
19167;SDS011;9716;53.114;18.040;2023-06-04T00:31:15;4.13;;;1.80;;
19167;SDS011;9716;53.114;18.040;2023-06-04T00:33:43;4.57;;;2.00;;
19167;SDS011;9716;53.114;18.040;2023-06-04T00:36:12;6.95;;;2.15;;
19167;SDS011;9716;53.114;18.040;2023-06-04T00:38:42;5.18;;;1.95;;
19167;SDS011;9716;53.114;18.040;2023-06-04T00:41:10;4.43;;;1.98;;
19167;SDS011;9716;53.114;18.040;2023-06-04T00:43:39;3.42;;;1.90;;
19167;SDS011;9716;53.114;18.040;2023-06-04T00:46:12;1.85;;;1.67;;
19167;SDS011;9716;53.114;18.040;2023-06-04T00:48:45;3.38;;;1.63;;
19167;SDS011;9716;53.114;18.040;2023-06-04T00:51:13;8.70;;;2.03;;
19167;SDS011;9716;53.114;18.040;2023-06-04T00:53:43;4.22;;;1.95;;
19167;SDS011;9716;53.114;18.040;2023-06-04T00:56:11;1.95;;;1.75;;
19167;SDS011;9716;53.114;18.040;2023-06-04T00:58:40;4.50;;;2.05;;
19167;SDS011;9716;53.114;18.040;2023-06-04T01:01:10;8.25;;;2.38;;
19167;SDS011;9716;53.114;18.040;2023-06-04T01:03:45;10.18;;;1.95;;
19167;SDS011;9716;53.114;18.040;2023-06-04T01:06:19;3.50;;;1.73;;
19167;SDS011;9716;53.114;18.040;2023-06-04T01:08:55;4.25;;;2.20;;
19167;SDS011;9716;53.114;18.040;2023-06-04T01:11:30;2.13;;;1.88;;
19167;SDS011;9716;53.114;18.040;2023-06-04T01:14:01;4.38;;;2.35;;
19167;SDS011;9716;53.114;18.040;2023-06-04T01:16:30;4.68;;;2.47;;
19167;SDS011;9716;53.114;18.040;2023-06-04T01:19:05;10.18;;;2.30;;
19167;SDS011;9716;53.114;18.040;2023-06-04T01:21:48;8.50;;;2.55;;
19167;SDS011;9716;53.114;18.040;2023-06-04T01:24:22;4.85;;;2.05;;
19167;SDS011;9716;53.114;18.040;2023-06-04T01:26:54;4.03;;;2.13;;
19167;SDS011;9716;53.114;18.040;2023-06-04T01:29:23;4.00;;;1.80;;
19167;SDS011;9716;53.114;18.040;2023-06-04T01:31:56;3.85;;;2.28;;
19167;SDS011;9716;53.114;18.040;2023-06-04T01:34:26;2.30;;;1.70;;
19167;SDS011;9716;53.114;18.040;2023-06-04T01:36:54;4.35;;;1.60;;
19167;SDS011;9716;53.114;18.040;2023-06-04T01:39:24;4.32;;;1.90;;
19167;SDS011;9716;53.114;18.040;2023-06-04T01:41:53;3.85;;;2.00;;
19167;SDS011;9716;53.114;18.040;2023-06-04T01:44:21;2.78;;;2.13;;
19167;SDS011;9716;53.114;18.040;2023-06-04T01:46:50;2.90;;;1.83;;
19167;SDS011;9716;53.114;18.040;2023-06-04T01:49:18;3.88;;;2.17;;
19167;SDS011;9716;53.114;18.040;2023-06-04T01:51:47;13.98;;;3.17;;
19167;SDS011;9716;53.114;18.040;2023-06-04T01:54:15;5.30;;;2.28;;
19167;SDS011;9716;53.114;18.040;2023-06-04T01:56:45;2.92;;;2.05;;
19167;SDS011;9716;53.114;18.040;2023-06-04T01:59:15;4.78;;;2.47;;
19167;SDS011;9716;53.114;18.040;2023-06-04T02:01:44;5.85;;;2.55;;
19167;SDS011;9716;53.114;18.040;2023-06-04T02:04:12;4.57;;;2.13;;
19167;SDS011;9716;53.114;18.040;2023-06-04T02:06:40;13.00;;;4.13;;
19167;SDS011;9716;53.114;18.040;2023-06-04T02:09:09;7.68;;;2.60;;
19167;SDS011;9716;53.114;18.040;2023-06-04T02:11:37;6.57;;;2.75;;
19167;SDS011;9716;53.114;18.040;2023-06-04T02:14:07;6.18;;;2.30;;
19167;SDS011;9716;53.114;18.040;2023-06-04T02:16:36;6.25;;;2.65;;
19167;SDS011;9716;53.114;18.040;2023-06-04T02:19:05;8.85;;;3.38;;
19167;SDS011;9716;53.114;18.040;2023-06-04T02:21:34;8.70;;;2.85;;
19167;SDS011;9716;53.114;18.040;2023-06-04T02:24:03;6.63;;;2.25;;
19167;SDS011;9716;53.114;18.040;2023-06-04T02:26:32;5.22;;;2.47;;
19167;SDS011;9716;53.114;18.040;2023-06-04T02:29:00;5.85;;;2.72;;
19167;SDS011;9716;53.114;18.040;2023-06-04T02:31:30;6.07;;;2.67;;
19167;SDS011;9716;53.114;18.040;2023-06-04T02:33:58;8.55;;;2.13;;
19167;SDS011;9716;53.114;18.040;2023-06-04T02:36:28;7.20;;;2.92;;
19167;SDS011;9716;53.114;18.040;2023-06-04T02:38:57;7.68;;;2.13;;
19167;SDS011;9716;53.114;18.040;2023-06-04T02:41:25;7.28;;;2.65;;
19167;SDS011;9716;53.114;18.040;2023-06-04T02:43:54;5.20;;;2.28;;
19167;SDS011;9716;53.114;18.040;2023-06-04T02:46:22;7.63;;;2.85;;
19167;SDS011;9716;53.114;18.040;2023-06-04T02:48:52;6.68;;;2.72;;
19167;SDS011;9716;53.114;18.040;2023-06-04T02:51:21;6.38;;;2.83;;
19167;SDS011;9716;53.114;18.040;2023-06-04T02:53:50;5.95;;;2.47;;
19167;SDS011;9716;53.114;18.040;2023-06-04T02:56:18;3.95;;;2.15;;
19167;SDS011;9716;53.114;18.040;2023-06-04T02:58:48;4.97;;;2.50;;
19167;SDS011;9716;53.114;18.040;2023-06-04T03:01:18;6.18;;;2.75;;
19167;SDS011;9716;53.114;18.040;2023-06-04T03:03:47;3.90;;;2.30;;
19167;SDS011;9716;53.114;18.040;2023-06-04T03:06:18;7.93;;;2.47;;
19167;SDS011;9716;53.114;18.040;2023-06-04T03:08:48;6.10;;;2.20;;
19167;SDS011;9716;53.114;18.040;2023-06-04T03:11:18;3.63;;;2.30;;
19167;SDS011;9716;53.114;18.040;2023-06-04T03:13:47;4.45;;;2.47;;
19167;SDS011;9716;53.114;18.040;2023-06-04T03:16:18;4.03;;;2.00;;
19167;SDS011;9716;53.114;18.040;2023-06-04T03:18:47;3.85;;;1.95;;
19167;SDS011;9716;53.114;18.040;2023-06-04T03:21:16;5.93;;;2.30;;
19167;SDS011;9716;53.114;18.040;2023-06-04T03:23:47;5.75;;;2.55;;
19167;SDS011;9716;53.114;18.040;2023-06-04T03:26:16;3.90;;;2.42;;
19167;SDS011;9716;53.114;18.040;2023-06-04T03:28:44;4.65;;;2.13;;
19167;SDS011;9716;53.114;18.040;2023-06-04T03:31:13;3.30;;;1.95;;
19167;SDS011;9716;53.114;18.040;2023-06-04T03:33:41;8.88;;;2.60;;
19167;SDS011;9716;53.114;18.040;2023-06-04T03:36:10;4.57;;;2.53;;
19167;SDS011;9716;53.114;18.040;2023-06-04T03:38:40;4.75;;;1.98;;
19167;SDS011;9716;53.114;18.040;2023-06-04T03:41:09;3.97;;;1.92;;
19167;SDS011;9716;53.114;18.040;2023-06-04T03:43:37;3.47;;;2.33;;
19167;SDS011;9716;53.114;18.040;2023-06-04T03:46:06;4.25;;;2.25;;
19167;SDS011;9716;53.114;18.040;2023-06-04T03:48:34;5.07;;;1.80;;
19167;SDS011;9716;53.114;18.040;2023-06-04T03:51:03;7.35;;;2.40;;
19167;SDS011;9716;53.114;18.040;2023-06-04T03:53:32;12.60;;;3.25;;
19167;SDS011;9716;53.114;18.040;2023-06-04T03:56:02;4.30;;;2.35;;
19167;SDS011;9716;53.114;18.040;2023-06-04T03:58:31;4.85;;;2.08;;
19167;SDS011;9716;53.114;18.040;2023-06-04T04:01:00;5.55;;;2.30;;
19167;SDS011;9716;53.114;18.040;2023-06-04T04:03:31;13.00;;;2.35;;
19167;SDS011;9716;53.114;18.040;2023-06-04T04:06:02;4.97;;;2.40;;
19167;SDS011;9716;53.114;18.040;2023-06-04T04:08:31;5.47;;;2.35;;
19167;SDS011;9716;53.114;18.040;2023-06-04T04:11:02;4.78;;;1.95;;
19167;SDS011;9716;53.114;18.040;2023-06-04T04:13:31;5.85;;;2.30;;
19167;SDS011;9716;53.114;18.040;2023-06-04T04:16:00;5.80;;;2.25;;
19167;SDS011;9716;53.114;18.040;2023-06-04T04:18:31;4.68;;;2.30;;
19167;SDS011;9716;53.114;18.040;2023-06-04T04:21:01;6.30;;;2.60;;
19167;SDS011;9716;53.114;18.040;2023-06-04T04:23:31;8.32;;;3.25;;
19167;SDS011;9716;53.114;18.040;2023-06-04T04:26:00;7.35;;;2.83;;
19167;SDS011;9716;53.114;18.040;2023-06-04T04:28:30;10.20;;;3.05;;
19167;SDS011;9716;53.114;18.040;2023-06-04T04:30:59;6.82;;;2.80;;
19167;SDS011;9716;53.114;18.040;2023-06-04T04:33:29;7.97;;;3.08;;
19167;SDS011;9716;53.114;18.040;2023-06-04T04:36:03;8.20;;;3.00;;
19167;SDS011;9716;53.114;18.040;2023-06-04T04:38:32;7.00;;;3.30;;
19167;SDS011;9716;53.114;18.040;2023-06-04T04:41:01;10.02;;;3.28;;
19167;SDS011;9716;53.114;18.040;2023-06-04T04:43:32;6.65;;;3.38;;
19167;SDS011;9716;53.114;18.040;2023-06-04T04:46:01;6.82;;;3.10;;
19167;SDS011;9716;53.114;18.040;2023-06-04T04:48:30;9.85;;;3.45;;
19167;SDS011;9716;53.114;18.040;2023-06-04T04:50:58;11.48;;;3.08;;
19167;SDS011;9716;53.114;18.040;2023-06-04T04:53:27;11.43;;;2.70;;
19167;SDS011;9716;53.114;18.040;2023-06-04T04:55:56;7.15;;;2.53;;
19167;SDS011;9716;53.114;18.040;2023-06-04T04:58:25;6.85;;;3.28;;
19167;SDS011;9716;53.114;18.040;2023-06-04T05:00:55;4.97;;;2.92;;
19167;SDS011;9716;53.114;18.040;2023-06-04T05:03:25;7.70;;;3.20;;
19167;SDS011;9716;53.114;18.040;2023-06-04T05:05:53;12.82;;;2.80;;
19167;SDS011;9716;53.114;18.040;2023-06-04T05:08:22;6.30;;;3.05;;
19167;SDS011;9716;53.114;18.040;2023-06-04T05:10:51;4.57;;;2.92;;
19167;SDS011;9716;53.114;18.040;2023-06-04T05:13:19;5.45;;;2.85;;
19167;SDS011;9716;53.114;18.040;2023-06-04T05:15:49;6.00;;;3.17;;
19167;SDS011;9716;53.114;18.040;2023-06-04T05:18:20;8.50;;;2.40;;
19167;SDS011;9716;53.114;18.040;2023-06-04T05:20:55;5.95;;;2.80;;
19167;SDS011;9716;53.114;18.040;2023-06-04T05:23:24;8.13;;;2.70;;
19167;SDS011;9716;53.114;18.040;2023-06-04T05:25:54;4.65;;;2.63;;
19167;SDS011;9716;53.114;18.040;2023-06-04T05:28:22;4.30;;;2.22;;
19167;SDS011;9716;53.114;18.040;2023-06-04T05:30:52;6.15;;;3.38;;
19167;SDS011;9716;53.114;18.040;2023-06-04T05:33:27;7.93;;;2.63;;
19167;SDS011;9716;53.114;18.040;2023-06-04T05:35:57;10.82;;;2.30;;
19167;SDS011;9716;53.114;18.040;2023-06-04T05:38:26;4.95;;;2.08;;
19167;SDS011;9716;53.114;18.040;2023-06-04T05:40:57;4.38;;;2.03;;
19167;SDS011;9716;53.114;18.040;2023-06-04T05:43:26;5.10;;;2.45;;
19167;SDS011;9716;53.114;18.040;2023-06-04T05:45:55;4.80;;;1.88;;
19167;SDS011;9716;53.114;18.040;2023-06-04T05:48:23;3.30;;;2.03;;
19167;SDS011;9716;53.114;18.040;2023-06-04T05:50:53;5.18;;;2.42;;
19167;SDS011;9716;53.114;18.040;2023-06-04T05:53:22;4.13;;;2.13;;
19167;SDS011;9716;53.114;18.040;2023-06-04T05:55:50;3.13;;;1.83;;
19167;SDS011;9716;53.114;18.040;2023-06-04T05:58:19;3.83;;;2.05;;
19167;SDS011;9716;53.114;18.040;2023-06-04T06:00:48;2.47;;;1.77;;
19167;SDS011;9716;53.114;18.040;2023-06-04T06:03:16;4.65;;;2.10;;
19167;SDS011;9716;53.114;18.040;2023-06-04T06:05:46;5.82;;;1.85;;
19167;SDS011;9716;53.114;18.040;2023-06-04T06:08:16;2.85;;;1.60;;
19167;SDS011;9716;53.114;18.040;2023-06-04T06:10:44;2.50;;;1.67;;
19167;SDS011;9716;53.114;18.040;2023-06-04T06:13:13;2.28;;;1.60;;
19167;SDS011;9716;53.114;18.040;2023-06-04T06:15:42;7.63;;;1.83;;
19167;SDS011;9716;53.114;18.040;2023-06-04T06:18:10;11.32;;;1.80;;
19167;SDS011;9716;53.114;18.040;2023-06-04T06:20:39;14.50;;;1.73;;
19167;SDS011;9716;53.114;18.040;2023-06-04T06:23:07;1.95;;;1.02;;
19167;SDS011;9716;53.114;18.040;2023-06-04T06:25:37;1.48;;;1.00;;
19167;SDS011;9716;53.114;18.040;2023-06-04T06:28:07;1.27;;;1.02;;
19167;SDS011;9716;53.114;18.040;2023-06-04T06:30:35;12.10;;;1.75;;
19167;SDS011;9716;53.114;18.040;2023-06-04T06:33:04;2.13;;;1.33;;
19167;SDS011;9716;53.114;18.040;2023-06-04T06:35:33;2.28;;;1.38;;
19167;SDS011;9716;53.114;18.040;2023-06-04T06:38:02;1.30;;;1.05;;
19167;SDS011;9716;53.114;18.040;2023-06-04T06:40:30;2.97;;;1.50;;
19167;SDS011;9716;53.114;18.040;2023-06-04T06:43:00;1.85;;;1.15;;
19167;SDS011;9716;53.114;18.040;2023-06-04T06:45:29;2.90;;;1.10;;
19167;SDS011;9716;53.114;18.040;2023-06-04T06:47:57;7.95;;;1.35;;
19167;SDS011;9716;53.114;18.040;2023-06-04T06:50:26;1.17;;;0.98;;
19167;SDS011;9716;53.114;18.040;2023-06-04T06:52:55;2.47;;;0.93;;
19167;SDS011;9716;53.114;18.040;2023-06-04T06:55:23;3.63;;;0.75;;
19167;SDS011;9716;53.114;18.040;2023-06-04T06:57:51;2.63;;;1.52;;
19167;SDS011;9716;53.114;18.040;2023-06-04T07:00:25;1.70;;;0.90;;
19167;SDS011;9716;53.114;18.040;2023-06-04T07:02:54;2.45;;;1.27;;
19167;SDS011;9716;53.114;18.040;2023-06-04T07:05:23;2.13;;;0.95;;
19167;SDS011;9716;53.114;18.040;2023-06-04T07:07:52;6.55;;;1.10;;
19167;SDS011;9716;53.114;18.040;2023-06-04T07:10:21;1.33;;;0.90;;
19167;SDS011;9716;53.114;18.040;2023-06-04T07:12:49;0.90;;;0.80;;
19167;SDS011;9716;53.114;18.040;2023-06-04T07:15:18;3.38;;;1.10;;
19167;SDS011;9716;53.114;18.040;2023-06-04T07:17:48;1.25;;;0.95;;
19167;SDS011;9716;53.114;18.040;2023-06-04T07:20:17;9.35;;;1.30;;
19167;SDS011;9716;53.114;18.040;2023-06-04T07:22:45;1.77;;;0.85;;
19167;SDS011;9716;53.114;18.040;2023-06-04T07:25:14;1.05;;;0.60;;
19167;SDS011;9716;53.114;18.040;2023-06-04T07:27:43;0.57;;;0.57;;
19167;SDS011;9716;53.114;18.040;2023-06-04T07:30:12;0.45;;;0.45;;
19167;SDS011;9716;53.114;18.040;2023-06-04T07:32:40;0.90;;;0.70;;
19167;SDS011;9716;53.114;18.040;2023-06-04T07:35:15;3.03;;;0.77;;
19167;SDS011;9716;53.114;18.040;2023-06-04T07:37:43;1.02;;;0.75;;
19167;SDS011;9716;53.114;18.040;2023-06-04T07:40:14;0.70;;;0.65;;
19167;SDS011;9716;53.114;18.040;2023-06-04T07:42:44;2.78;;;1.23;;
19167;SDS011;9716;53.114;18.040;2023-06-04T07:45:13;3.15;;;1.05;;
19167;SDS011;9716;53.114;18.040;2023-06-04T07:47:42;3.17;;;0.82;;
19167;SDS011;9716;53.114;18.040;2023-06-04T07:50:11;3.17;;;0.85;;
19167;SDS011;9716;53.114;18.040;2023-06-04T07:52:41;2.92;;;1.00;;
19167;SDS011;9716;53.114;18.040;2023-06-04T07:55:10;1.00;;;0.65;;
19167;SDS011;9716;53.114;18.040;2023-06-04T07:57:39;2.13;;;0.60;;
19167;SDS011;9716;53.114;18.040;2023-06-04T08:00:09;1.80;;;1.10;;
19167;SDS011;9716;53.114;18.040;2023-06-04T08:02:38;10.52;;;0.80;;
19167;SDS011;9716;53.114;18.040;2023-06-04T08:05:07;0.70;;;0.70;;
19167;SDS011;9716;53.114;18.040;2023-06-04T08:07:37;6.25;;;0.70;;
19167;SDS011;9716;53.114;18.040;2023-06-04T08:10:07;0.60;;;0.40;;
19167;SDS011;9716;53.114;18.040;2023-06-04T08:12:36;1.42;;;0.85;;
19167;SDS011;9716;53.114;18.040;2023-06-04T08:15:05;1.20;;;0.50;;
19167;SDS011;9716;53.114;18.040;2023-06-04T08:17:34;0.90;;;0.50;;
19167;SDS011;9716;53.114;18.040;2023-06-04T08:20:04;0.60;;;0.50;;
19167;SDS011;9716;53.114;18.040;2023-06-04T08:22:35;0.47;;;0.45;;
19167;SDS011;9716;53.114;18.040;2023-06-04T08:25:03;0.60;;;0.55;;
19167;SDS011;9716;53.114;18.040;2023-06-04T08:27:34;1.70;;;0.70;;
19167;SDS011;9716;53.114;18.040;2023-06-04T08:30:04;0.60;;;0.60;;
19167;SDS011;9716;53.114;18.040;2023-06-04T08:32:34;4.85;;;0.82;;
19167;SDS011;9716;53.114;18.040;2023-06-04T08:35:03;1.00;;;0.57;;
19167;SDS011;9716;53.114;18.040;2023-06-04T08:37:32;0.95;;;0.60;;
19167;SDS011;9716;53.114;18.040;2023-06-04T08:40:00;0.85;;;0.75;;
19167;SDS011;9716;53.114;18.040;2023-06-04T08:42:34;0.93;;;0.55;;
19167;SDS011;9716;53.114;18.040;2023-06-04T08:45:09;0.85;;;0.70;;
19167;SDS011;9716;53.114;18.040;2023-06-04T08:47:40;1.15;;;0.77;;
19167;SDS011;9716;53.114;18.040;2023-06-04T08:50:12;1.05;;;0.70;;
19167;SDS011;9716;53.114;18.040;2023-06-04T08:52:43;1.20;;;0.55;;
19167;SDS011;9716;53.114;18.040;2023-06-04T08:55:13;5.40;;;1.20;;
19167;SDS011;9716;53.114;18.040;2023-06-04T08:57:44;0.60;;;0.60;;
19167;SDS011;9716;53.114;18.040;2023-06-04T09:00:15;1.02;;;0.50;;
19167;SDS011;9716;53.114;18.040;2023-06-04T09:02:45;0.68;;;0.65;;
19167;SDS011;9716;53.114;18.040;2023-06-04T09:05:19;0.40;;;0.40;;
19167;SDS011;9716;53.114;18.040;2023-06-04T09:07:51;0.93;;;0.70;;
19167;SDS011;9716;53.114;18.040;2023-06-04T09:10:21;1.27;;;0.80;;
19167;SDS011;9716;53.114;18.040;2023-06-04T09:12:53;0.40;;;0.40;;
19167;SDS011;9716;53.114;18.040;2023-06-04T09:15:24;0.60;;;0.60;;
19167;SDS011;9716;53.114;18.040;2023-06-04T09:17:53;8.55;;;0.70;;
19167;SDS011;9716;53.114;18.040;2023-06-04T09:20:22;6.43;;;0.80;;
19167;SDS011;9716;53.114;18.040;2023-06-04T09:22:51;5.60;;;0.65;;
19167;SDS011;9716;53.114;18.040;2023-06-04T09:25:20;1.88;;;0.80;;
19167;SDS011;9716;53.114;18.040;2023-06-04T09:27:50;0.80;;;0.68;;
19167;SDS011;9716;53.114;18.040;2023-06-04T09:30:20;1.95;;;0.68;;
19167;SDS011;9716;53.114;18.040;2023-06-04T09:32:49;0.43;;;0.43;;
19167;SDS011;9716;53.114;18.040;2023-06-04T09:35:20;0.60;;;0.60;;
19167;SDS011;9716;53.114;18.040;2023-06-04T09:37:52;1.17;;;0.60;;
19167;SDS011;9716;53.114;18.040;2023-06-04T09:40:22;0.75;;;0.52;;
19167;SDS011;9716;53.114;18.040;2023-06-04T09:42:51;0.80;;;0.60;;
19167;SDS011;9716;53.114;18.040;2023-06-04T09:45:30;2.47;;;0.82;;
19167;SDS011;9716;53.114;18.040;2023-06-04T09:48:00;0.60;;;0.60;;
19167;SDS011;9716;53.114;18.040;2023-06-04T09:50:32;0.52;;;0.50;;
19167;SDS011;9716;53.114;18.040;2023-06-04T09:53:12;2.03;;;0.63;;
19167;SDS011;9716;53.114;18.040;2023-06-04T09:55:42;0.50;;;0.50;;
19167;SDS011;9716;53.114;18.040;2023-06-04T09:58:11;2.40;;;0.98;;
19167;SDS011;9716;53.114;18.040;2023-06-04T10:00:43;1.77;;;0.93;;
19167;SDS011;9716;53.114;18.040;2023-06-04T10:03:14;0.93;;;0.70;;
19167;SDS011;9716;53.114;18.040;2023-06-04T10:05:46;0.50;;;0.50;;
19167;SDS011;9716;53.114;18.040;2023-06-04T10:08:15;0.70;;;0.70;;
19167;SDS011;9716;53.114;18.040;2023-06-04T10:10:48;1.55;;;1.08;;
19167;SDS011;9716;53.114;18.040;2023-06-04T10:13:20;1.23;;;0.60;;
19167;SDS011;9716;53.114;18.040;2023-06-04T10:15:52;0.93;;;0.60;;
19167;SDS011;9716;53.114;18.040;2023-06-04T10:18:22;1.17;;;0.60;;
19167;SDS011;9716;53.114;18.040;2023-06-04T10:20:55;0.57;;;0.50;;
19167;SDS011;9716;53.114;18.040;2023-06-04T10:23:24;1.77;;;0.77;;
19167;SDS011;9716;53.114;18.040;2023-06-04T10:25:52;1.20;;;0.70;;
19167;SDS011;9716;53.114;18.040;2023-06-04T10:28:22;1.05;;;0.40;;
19167;SDS011;9716;53.114;18.040;2023-06-04T10:30:52;3.08;;;0.60;;
19167;SDS011;9716;53.114;18.040;2023-06-04T10:33:21;2.60;;;1.00;;
19167;SDS011;9716;53.114;18.040;2023-06-04T10:35:53;0.77;;;0.73;;
19167;SDS011;9716;53.114;18.040;2023-06-04T10:38:23;0.85;;;0.63;;
19167;SDS011;9716;53.114;18.040;2023-06-04T10:40:52;1.45;;;0.75;;
19167;SDS011;9716;53.114;18.040;2023-06-04T10:43:21;1.75;;;0.93;;
19167;SDS011;9716;53.114;18.040;2023-06-04T10:45:49;1.13;;;0.80;;
19167;SDS011;9716;53.114;18.040;2023-06-04T10:48:19;0.60;;;0.60;;
19167;SDS011;9716;53.114;18.040;2023-06-04T10:50:48;0.50;;;0.50;;
19167;SDS011;9716;53.114;18.040;2023-06-04T10:53:18;1.98;;;0.90;;
19167;SDS011;9716;53.114;18.040;2023-06-04T10:55:49;1.70;;;0.98;;
19167;SDS011;9716;53.114;18.040;2023-06-04T10:58:18;0.85;;;0.77;;
19167;SDS011;9716;53.114;18.040;2023-06-04T11:00:47;1.30;;;0.70;;
19167;SDS011;9716;53.114;18.040;2023-06-04T11:03:19;0.80;;;0.80;;
19167;SDS011;9716;53.114;18.040;2023-06-04T11:05:48;0.95;;;0.57;;
19167;SDS011;9716;53.114;18.040;2023-06-04T11:08:26;0.68;;;0.68;;
19167;SDS011;9716;53.114;18.040;2023-06-04T11:10:57;0.63;;;0.60;;
19167;SDS011;9716;53.114;18.040;2023-06-04T11:13:27;0.57;;;0.57;;
19167;SDS011;9716;53.114;18.040;2023-06-04T11:15:56;1.58;;;0.98;;
19167;SDS011;9716;53.114;18.040;2023-06-04T11:18:26;1.35;;;0.73;;
19167;SDS011;9716;53.114;18.040;2023-06-04T11:20:58;0.77;;;0.47;;
19167;SDS011;9716;53.114;18.040;2023-06-04T11:23:28;0.80;;;0.63;;
19167;SDS011;9716;53.114;18.040;2023-06-04T11:25:56;0.90;;;0.75;;
19167;SDS011;9716;53.114;18.040;2023-06-04T11:28:26;0.85;;;0.68;;
19167;SDS011;9716;53.114;18.040;2023-06-04T11:30:55;1.15;;;0.95;;
19167;SDS011;9716;53.114;18.040;2023-06-04T11:33:26;3.30;;;0.73;;
19167;SDS011;9716;53.114;18.040;2023-06-04T11:35:55;1.65;;;0.80;;
19167;SDS011;9716;53.114;18.040;2023-06-04T11:38:24;0.63;;;0.63;;
19167;SDS011;9716;53.114;18.040;2023-06-04T11:40:58;0.70;;;0.60;;
19167;SDS011;9716;53.114;18.040;2023-06-04T11:43:30;0.75;;;0.70;;
19167;SDS011;9716;53.114;18.040;2023-06-04T11:46:04;1.38;;;0.60;;
19167;SDS011;9716;53.114;18.040;2023-06-04T11:48:38;1.33;;;0.90;;
19167;SDS011;9716;53.114;18.040;2023-06-04T11:51:07;1.55;;;0.65;;
19167;SDS011;9716;53.114;18.040;2023-06-04T11:53:37;0.43;;;0.43;;
19167;SDS011;9716;53.114;18.040;2023-06-04T11:56:05;1.42;;;1.00;;
19167;SDS011;9716;53.114;18.040;2023-06-04T11:58:34;6.22;;;0.77;;
19167;SDS011;9716;53.114;18.040;2023-06-04T12:01:04;0.98;;;0.55;;
19167;SDS011;9716;53.114;18.040;2023-06-04T12:03:33;0.60;;;0.55;;
19167;SDS011;9716;53.114;18.040;2023-06-04T12:06:12;0.82;;;0.80;;
19167;SDS011;9716;53.114;18.040;2023-06-04T12:08:46;1.75;;;0.77;;
19167;SDS011;9716;53.114;18.040;2023-06-04T12:11:26;0.90;;;0.65;;
19167;SDS011;9716;53.114;18.040;2023-06-04T12:13:58;0.88;;;0.70;;
19167;SDS011;9716;53.114;18.040;2023-06-04T12:16:28;0.65;;;0.63;;
19167;SDS011;9716;53.114;18.040;2023-06-04T12:19:04;0.40;;;0.40;;
19167;SDS011;9716;53.114;18.040;2023-06-04T12:21:36;2.28;;;0.93;;
19167;SDS011;9716;53.114;18.040;2023-06-04T12:24:05;0.50;;;0.50;;
19167;SDS011;9716;53.114;18.040;2023-06-04T12:26:35;1.15;;;0.77;;
19167;SDS011;9716;53.114;18.040;2023-06-04T12:29:08;0.70;;;0.70;;
19167;SDS011;9716;53.114;18.040;2023-06-04T12:31:38;0.40;;;0.40;;
19167;SDS011;9716;53.114;18.040;2023-06-04T12:34:09;0.80;;;0.65;;
19167;SDS011;9716;53.114;18.040;2023-06-04T12:36:39;0.90;;;0.60;;
19167;SDS011;9716;53.114;18.040;2023-06-04T12:39:09;1.02;;;0.68;;
19167;SDS011;9716;53.114;18.040;2023-06-04T12:41:38;0.93;;;0.70;;
19167;SDS011;9716;53.114;18.040;2023-06-04T12:44:13;0.43;;;0.43;;
19167;SDS011;9716;53.114;18.040;2023-06-04T12:46:42;1.52;;;0.80;;
19167;SDS011;9716;53.114;18.040;2023-06-04T12:49:11;0.77;;;0.77;;
19167;SDS011;9716;53.114;18.040;2023-06-04T12:51:41;3.08;;;0.65;;
19167;SDS011;9716;53.114;18.040;2023-06-04T12:54:10;0.75;;;0.55;;
19167;SDS011;9716;53.114;18.040;2023-06-04T12:56:38;1.83;;;0.77;;
19167;SDS011;9716;53.114;18.040;2023-06-04T12:59:10;1.50;;;0.82;;
19167;SDS011;9716;53.114;18.040;2023-06-04T13:01:38;0.70;;;0.70;;
19167;SDS011;9716;53.114;18.040;2023-06-04T13:04:07;1.55;;;0.95;;
19167;SDS011;9716;53.114;18.040;2023-06-04T13:06:36;0.50;;;0.50;;
19167;SDS011;9716;53.114;18.040;2023-06-04T13:09:07;0.93;;;0.80;;
19167;SDS011;9716;53.114;18.040;2023-06-04T13:11:37;0.63;;;0.63;;
19167;SDS011;9716;53.114;18.040;2023-06-04T13:14:06;0.77;;;0.77;;
19167;SDS011;9716;53.114;18.040;2023-06-04T13:16:36;0.77;;;0.75;;
19167;SDS011;9716;53.114;18.040;2023-06-04T13:19:06;0.70;;;0.70;;
19167;SDS011;9716;53.114;18.040;2023-06-04T13:21:35;1.00;;;0.55;;
19167;SDS011;9716;53.114;18.040;2023-06-04T13:24:04;2.03;;;0.93;;
19167;SDS011;9716;53.114;18.040;2023-06-04T13:26:35;1.52;;;0.70;;
19167;SDS011;9716;53.114;18.040;2023-06-04T13:29:05;0.93;;;0.60;;
19167;SDS011;9716;53.114;18.040;2023-06-04T13:31:34;0.75;;;0.75;;
19167;SDS011;9716;53.114;18.040;2023-06-04T13:34:03;1.10;;;0.70;;
19167;SDS011;9716;53.114;18.040;2023-06-04T13:36:51;2.33;;;0.82;;
19167;SDS011;9716;53.114;18.040;2023-06-04T13:39:20;1.08;;;0.63;;
19167;SDS011;9716;53.114;18.040;2023-06-04T13:41:50;3.00;;;0.68;;
19167;SDS011;9716;53.114;18.040;2023-06-04T13:44:20;0.65;;;0.65;;
19167;SDS011;9716;53.114;18.040;2023-06-04T13:46:52;0.90;;;0.80;;
19167;SDS011;9716;53.114;18.040;2023-06-04T13:49:21;1.02;;;0.85;;
19167;SDS011;9716;53.114;18.040;2023-06-04T13:51:50;1.25;;;0.90;;
19167;SDS011;9716;53.114;18.040;2023-06-04T13:54:19;1.13;;;0.60;;
19167;SDS011;9716;53.114;18.040;2023-06-04T13:56:47;3.22;;;0.98;;
19167;SDS011;9716;53.114;18.040;2023-06-04T13:59:18;1.02;;;0.93;;
19167;SDS011;9716;53.114;18.040;2023-06-04T14:01:46;1.38;;;0.52;;
19167;SDS011;9716;53.114;18.040;2023-06-04T14:04:15;1.20;;;0.85;;
19167;SDS011;9716;53.114;18.040;2023-06-04T14:06:45;2.35;;;0.80;;
19167;SDS011;9716;53.114;18.040;2023-06-04T14:09:14;1.23;;;0.90;;
19167;SDS011;9716;53.114;18.040;2023-06-04T14:11:43;0.60;;;0.40;;
19167;SDS011;9716;53.114;18.040;2023-06-04T14:14:18;8.45;;;0.80;;
19167;SDS011;9716;53.114;18.040;2023-06-04T14:16:47;1.45;;;0.80;;
19167;SDS011;9716;53.114;18.040;2023-06-04T14:19:17;1.42;;;0.73;;
19167;SDS011;9716;53.114;18.040;2023-06-04T14:21:46;4.32;;;0.77;;
19167;SDS011;9716;53.114;18.040;2023-06-04T14:24:15;0.93;;;0.80;;
19167;SDS011;9716;53.114;18.040;2023-06-04T14:26:43;0.70;;;0.70;;
19167;SDS011;9716;53.114;18.040;2023-06-04T14:29:13;3.47;;;0.80;;
19167;SDS011;9716;53.114;18.040;2023-06-04T14:31:43;2.33;;;0.93;;
19167;SDS011;9716;53.114;18.040;2023-06-04T14:34:12;1.33;;;0.80;;
19167;SDS011;9716;53.114;18.040;2023-06-04T14:36:41;0.65;;;0.65;;
19167;SDS011;9716;53.114;18.040;2023-06-04T14:39:10;1.25;;;0.90;;
19167;SDS011;9716;53.114;18.040;2023-06-04T14:41:39;0.95;;;0.90;;
19167;SDS011;9716;53.114;18.040;2023-06-04T14:44:08;1.30;;;0.88;;
19167;SDS011;9716;53.114;18.040;2023-06-04T14:46:36;1.42;;;1.00;;
19167;SDS011;9716;53.114;18.040;2023-06-04T14:49:06;0.82;;;0.73;;
19167;SDS011;9716;53.114;18.040;2023-06-04T14:51:35;0.98;;;0.85;;
19167;SDS011;9716;53.114;18.040;2023-06-04T14:54:04;0.93;;;0.63;;
19167;SDS011;9716;53.114;18.040;2023-06-04T14:56:32;0.98;;;0.85;;
19167;SDS011;9716;53.114;18.040;2023-06-04T14:59:01;1.10;;;0.75;;
19167;SDS011;9716;53.114;18.040;2023-06-04T15:01:35;1.45;;;1.00;;
19167;SDS011;9716;53.114;18.040;2023-06-04T15:04:06;1.38;;;0.77;;